Time;durP1;ratioP1;P1;durP2;ratioP2;P2;SDS_P1;SDS_P2;PMS_P1;PMS_P2;Temp;Humidity;BMP_temperature;BMP_pressure;BME280_temperature;BME280_humidity;BME280_pressure;Samples;Min_cycle;Max_cycle;Signal;HPM_P1;HPM_P2
2022/07/13 00:02:17;;;;;;;5.38;3.80;;;20.80;99.90;;;;;;4958168;28;20468;-66
2022/07/13 00:04:43;;;;;;;5.38;3.55;;;20.80;99.90;;;;;;4991182;28;20048;-65
2022/07/13 00:07:09;;;;;;;5.18;3.63;;;20.80;99.90;;;;;;4947562;28;20068;-65
2022/07/13 00:09:35;;;;;;;9.30;3.67;;;20.80;99.90;;;;;;4995127;28;20140;-66
2022/07/13 00:12:00;;;;;;;6.57;3.55;;;20.80;99.90;;;;;;4977643;28;20404;-66
2022/07/13 00:14:26;;;;;;;4.00;3.50;;;20.70;99.90;;;;;;4979337;28;20038;-65
2022/07/13 00:16:52;;;;;;;7.40;3.75;;;20.70;99.90;;;;;;4991497;28;20045;-65
2022/07/13 00:19:18;;;;;;;5.20;4.25;;;20.70;99.90;;;;;;4992036;28;20076;-66
2022/07/13 00:21:44;;;;;;;5.38;3.53;;;20.70;99.90;;;;;;4991119;28;20437;-66
2022/07/13 00:24:10;;;;;;;7.97;3.95;;;20.70;99.90;;;;;;4961761;28;20054;-66
2022/07/13 00:26:35;;;;;;;6.82;3.85;;;20.70;99.90;;;;;;4993103;28;20096;-66
2022/07/13 00:29:01;;;;;;;5.05;3.80;;;20.70;99.90;;;;;;4977446;28;20046;-66
2022/07/13 00:31:27;;;;;;;6.50;3.88;;;20.70;99.90;;;;;;4992527;28;20041;-66
2022/07/13 00:33:53;;;;;;;6.90;4.00;;;20.70;99.90;;;;;;4990623;28;20538;-65
2022/07/13 00:36:19;;;;;;;4.68;4.28;;;20.70;99.90;;;;;;5007778;28;20229;-66
2022/07/13 00:38:44;;;;;;;10.50;3.83;;;20.60;99.90;;;;;;4990342;28;20050;-66
2022/07/13 00:41:10;;;;;;;6.97;4.20;;;20.70;99.90;;;;;;4977915;28;20049;-66
2022/07/13 00:43:36;;;;;;;5.35;4.55;;;20.70;99.90;;;;;;4972633;28;20199;-66
2022/07/13 00:46:02;;;;;;;5.72;4.00;;;20.70;99.90;;;;;;4991842;28;20050;-66
2022/07/13 00:48:29;;;;;;;4.60;4.20;;;20.70;99.90;;;;;;4992280;28;20046;-66
2022/07/13 00:50:55;;;;;;;8.77;4.30;;;20.70;99.90;;;;;;4992231;28;20504;-65
2022/07/13 00:53:23;;;;;;;9.57;4.90;;;20.70;99.90;;;;;;4973520;28;20045;-66
2022/07/13 00:55:49;;;;;;;8.43;4.25;;;20.70;99.90;;;;;;5005398;28;20453;-66
2022/07/13 00:58:15;;;;;;;6.07;4.60;;;20.60;99.90;;;;;;5008115;28;20060;-66
2022/07/13 01:00:41;;;;;;;10.48;4.65;;;20.60;99.90;;;;;;4972588;28;20053;-66
2022/07/13 01:03:07;;;;;;;5.35;4.57;;;20.70;99.90;;;;;;4990453;28;20058;-67
2022/07/13 01:05:33;;;;;;;5.40;4.90;;;20.70;99.90;;;;;;4974564;28;20066;-66
2022/07/13 01:08:02;;;;;;;5.72;5.10;;;20.70;99.90;;;;;;5006363;28;20053;-66
2022/07/13 01:10:28;;;;;;;6.38;4.70;;;20.70;99.90;;;;;;4972655;28;20050;-66
2022/07/13 01:12:53;;;;;;;6.13;5.05;;;20.70;99.90;;;;;;4991824;28;20038;-67
2022/07/13 01:15:21;;;;;;;5.53;5.03;;;20.60;99.90;;;;;;4988657;28;20077;-67
2022/07/13 01:17:48;;;;;;;5.70;5.10;;;20.60;99.90;;;;;;4986966;28;20539;-66
2022/07/13 01:20:15;;;;;;;6.15;4.85;;;20.60;99.90;;;;;;4996476;28;20044;-67
2022/07/13 01:22:50;;;;;;;5.60;5.00;;;20.60;99.90;;;;;;4988626;28;20066;-66
2022/07/13 01:25:18;;;;;;;6.07;5.47;;;20.60;99.90;;;;;;4976837;28;20587;-66
2022/07/13 01:27:45;;;;;;;6.43;5.00;;;20.60;99.90;;;;;;4995464;28;20061;-66
2022/07/13 01:30:11;;;;;;;6.35;5.07;;;20.60;99.90;;;;;;4972883;28;20050;-66
2022/07/13 01:32:43;;;;;;;6.07;5.38;;;20.60;99.90;;;;;;5009869;28;20038;-66
2022/07/13 01:35:09;;;;;;;6.65;5.63;;;20.60;99.90;;;;;;4975705;28;20038;-66
2022/07/13 01:37:35;;;;;;;6.35;5.45;;;20.60;99.90;;;;;;4992974;28;20107;-66
2022/07/13 01:40:01;;;;;;;7.13;5.25;;;20.60;99.90;;;;;;4993709;28;20050;-66
2022/07/13 01:42:27;;;;;;;8.00;5.60;;;20.60;99.90;;;;;;4991909;28;20053;-66
2022/07/13 01:44:54;;;;;;;8.85;5.95;;;20.60;99.90;;;;;;4992739;28;20077;-67
2022/07/13 01:47:20;;;;;;;8.25;5.50;;;20.60;99.90;;;;;;4974730;28;20160;-66
2022/07/13 01:49:45;;;;;;;7.80;5.90;;;20.60;99.90;;;;;;4974179;28;20105;-67
2022/07/13 01:52:11;;;;;;;7.43;5.53;;;20.60;99.90;;;;;;4987118;28;21828;-66
2022/07/13 01:54:37;;;;;;;9.15;5.93;;;20.60;99.90;;;;;;4985454;28;20084;-66
2022/07/13 01:57:03;;;;;;;9.93;6.00;;;20.60;99.90;;;;;;4990986;28;20129;-66
2022/07/13 01:59:29;;;;;;;8.75;6.13;;;20.60;99.90;;;;;;4973424;28;20050;-66
2022/07/13 02:01:55;;;;;;;7.30;6.07;;;20.60;99.90;;;;;;4975281;28;20050;-67
2022/07/13 02:04:21;;;;;;;7.38;5.88;;;20.50;99.90;;;;;;4989892;28;20504;-66
2022/07/13 02:06:46;;;;;;;8.63;5.80;;;20.50;99.90;;;;;;4990567;28;20038;-66
2022/07/13 02:09:12;;;;;;;8.57;5.90;;;20.60;99.90;;;;;;4992599;28;20054;-66
2022/07/13 02:11:38;;;;;;;7.78;6.10;;;20.50;99.90;;;;;;4992551;28;20656;-67
2022/07/13 02:14:04;;;;;;;8.13;6.40;;;20.50;99.90;;;;;;4989272;28;20273;-67
2022/07/13 02:16:29;;;;;;;7.25;5.93;;;20.50;99.90;;;;;;4994098;28;20052;-66
2022/07/13 02:18:55;;;;;;;11.50;6.10;;;20.60;99.90;;;;;;4991575;28;20033;-66
2022/07/13 02:21:21;;;;;;;8.77;6.45;;;20.60;99.90;;;;;;4975272;28;20133;-66
2022/07/13 02:23:47;;;;;;;7.55;6.32;;;20.50;99.90;;;;;;4981655;28;20046;-65
2022/07/13 02:26:12;;;;;;;6.80;6.20;;;20.50;99.90;;;;;;4989742;28;20041;-66
2022/07/13 02:28:38;;;;;;;9.60;6.28;;;20.50;99.90;;;;;;4992129;28;20497;-66
2022/07/13 02:31:04;;;;;;;8.73;6.40;;;20.50;99.90;;;;;;4957785;28;20081;-66
2022/07/13 02:33:30;;;;;;;8.50;6.65;;;20.40;99.90;;;;;;4970240;28;20423;-65
2022/07/13 02:35:56;;;;;;;9.65;6.38;;;20.40;99.90;;;;;;4991473;28;20042;-65
2022/07/13 02:38:21;;;;;;;8.10;6.10;;;20.40;99.90;;;;;;4992537;28;20129;-66
2022/07/13 02:40:47;;;;;;;11.52;6.57;;;20.40;99.90;;;;;;4973838;28;20050;-66
2022/07/13 02:43:13;;;;;;;9.77;6.60;;;20.40;99.90;;;;;;4991526;28;20245;-66
2022/07/13 02:45:39;;;;;;;11.35;6.65;;;20.40;99.90;;;;;;4993719;28;20049;-66
2022/07/13 02:48:05;;;;;;;8.13;7.07;;;20.40;99.90;;;;;;5008979;28;20058;-66
2022/07/13 02:50:30;;;;;;;8.63;6.93;;;20.40;99.90;;;;;;4992267;28;20045;-66
2022/07/13 02:52:56;;;;;;;7.00;6.30;;;20.40;99.90;;;;;;4975346;28;20042;-66
2022/07/13 02:55:22;;;;;;;8.20;6.72;;;20.40;99.90;;;;;;4970717;28;20653;-65
2022/07/13 02:57:48;;;;;;;12.10;7.47;;;20.30;99.90;;;;;;4987767;28;20049;-66
2022/07/13 03:00:14;;;;;;;9.90;7.00;;;20.30;99.90;;;;;;4988523;28;20364;-66
2022/07/13 03:02:40;;;;;;;9.55;7.10;;;20.30;99.90;;;;;;4993366;28;20404;-66
2022/07/13 03:05:07;;;;;;;8.43;6.80;;;20.30;99.90;;;;;;4987236;28;20095;-65
2022/07/13 03:07:33;;;;;;;8.60;6.60;;;20.30;99.90;;;;;;4993530;28;20469;-66
2022/07/13 03:09:59;;;;;;;8.98;7.45;;;20.30;99.90;;;;;;4993047;28;20124;-66
2022/07/13 03:12:24;;;;;;;11.30;7.00;;;20.30;99.90;;;;;;4979617;28;20064;-67
2022/07/13 03:14:50;;;;;;;9.73;6.93;;;20.30;99.90;;;;;;4996643;28;20049;-65
2022/07/13 03:17:16;;;;;;;8.15;7.30;;;20.30;99.90;;;;;;4978697;28;20077;-66
2022/07/13 03:19:42;;;;;;;8.40;7.50;;;20.30;99.90;;;;;;4974539;28;20049;-66
2022/07/13 03:22:09;;;;;;;7.65;6.93;;;20.30;99.90;;;;;;4957065;28;20061;-66
2022/07/13 03:24:34;;;;;;;7.93;7.13;;;20.30;99.90;;;;;;5008186;28;20073;-66
2022/07/13 03:27:00;;;;;;;12.18;7.15;;;20.30;99.90;;;;;;4993509;28;20125;-66
2022/07/13 03:29:26;;;;;;;8.90;7.43;;;20.30;99.90;;;;;;4978462;28;20119;-66
2022/07/13 03:31:52;;;;;;;9.63;7.82;;;20.30;99.90;;;;;;4994183;28;20051;-66
2022/07/13 03:34:18;;;;;;;8.52;7.25;;;20.20;99.90;;;;;;4995429;28;20191;-67
2022/07/13 03:36:44;;;;;;;13.73;7.72;;;20.20;99.90;;;;;;4994843;28;20176;-66
2022/07/13 03:39:10;;;;;;;12.48;7.20;;;20.20;99.90;;;;;;4994059;28;20045;-66
2022/07/13 03:41:36;;;;;;;9.52;7.22;;;20.20;99.90;;;;;;4976053;28;20127;-66
2022/07/13 03:44:02;;;;;;;10.35;6.95;;;20.20;99.90;;;;;;4990790;28;20041;-67
2022/07/13 03:46:28;;;;;;;7.47;6.78;;;20.20;99.90;;;;;;4994061;28;20049;-66
2022/07/13 03:48:53;;;;;;;10.07;7.32;;;20.20;99.90;;;;;;4994927;28;20045;-65
2022/07/13 03:51:19;;;;;;;9.00;7.38;;;20.20;99.90;;;;;;4997742;28;20042;-66
2022/07/13 03:53:45;;;;;;;11.32;7.70;;;20.20;99.90;;;;;;4976774;28;20051;-66
2022/07/13 03:56:11;;;;;;;8.20;7.32;;;20.20;99.90;;;;;;4977682;28;20049;-67
2022/07/13 03:58:37;;;;;;;8.80;7.47;;;20.20;99.90;;;;;;4993521;28;20042;-66
2022/07/13 04:01:03;;;;;;;11.57;7.68;;;20.20;99.90;;;;;;4995082;28;20054;-66
2022/07/13 04:03:28;;;;;;;8.30;7.40;;;20.20;99.90;;;;;;4975389;28;20140;-66
2022/07/13 04:05:54;;;;;;;11.20;7.53;;;20.20;99.90;;;;;;4994948;28;20053;-66
2022/07/13 04:08:20;;;;;;;9.18;7.75;;;20.20;99.90;;;;;;4990076;28;20054;-66
2022/07/13 04:10:46;;;;;;;10.50;7.50;;;20.20;99.90;;;;;;4980479;28;20050;-66
2022/07/13 04:13:12;;;;;;;9.15;7.30;;;20.20;99.90;;;;;;4978694;28;20125;-65
2022/07/13 04:15:38;;;;;;;10.93;7.85;;;20.20;99.90;;;;;;4974822;28;20053;-66
2022/07/13 04:18:03;;;;;;;9.85;7.70;;;20.20;99.90;;;;;;4995978;28;20054;-69
2022/07/13 04:20:29;;;;;;;9.25;7.38;;;20.20;99.90;;;;;;4990654;28;20060;-66
2022/07/13 04:22:55;;;;;;;8.60;7.45;;;20.20;99.90;;;;;;4976588;28;20097;-68
2022/07/13 04:25:21;;;;;;;10.68;7.93;;;20.20;99.90;;;;;;4992770;28;20520;-65
2022/07/13 04:27:47;;;;;;;12.10;8.18;;;20.20;99.90;;;;;;4996132;28;20125;-65
2022/07/13 04:30:13;;;;;;;10.30;7.65;;;20.20;99.90;;;;;;4976475;28;20042;-65
2022/07/13 04:32:39;;;;;;;10.65;6.72;;;20.20;99.90;;;;;;4993312;28;20407;-69
2022/07/13 04:35:05;;;;;;;9.80;7.10;;;20.20;99.90;;;;;;4994290;28;20050;-68
2022/07/13 04:37:33;;;;;;;8.63;7.07;;;20.20;99.90;;;;;;4992281;28;20466;-67
2022/07/13 04:39:59;;;;;;;8.63;7.05;;;20.30;99.90;;;;;;4992740;28;20045;-68
2022/07/13 04:42:25;;;;;;;10.25;7.13;;;20.30;99.90;;;;;;5001195;28;20050;-66
2022/07/13 04:44:51;;;;;;;10.65;7.38;;;20.30;99.90;;;;;;4989924;28;20061;-67
2022/07/13 04:47:17;;;;;;;12.00;7.22;;;20.30;99.90;;;;;;4972586;28;20496;-67
2022/07/13 04:49:42;;;;;;;8.10;7.15;;;20.30;99.90;;;;;;4992852;28;20430;-68
2022/07/13 04:52:08;;;;;;;8.10;7.30;;;20.30;99.90;;;;;;4976704;28;20945;-68
2022/07/13 04:54:34;;;;;;;8.60;7.15;;;20.40;99.90;;;;;;4986716;28;20057;-67
2022/07/13 04:57:00;;;;;;;9.30;7.63;;;20.40;99.90;;;;;;4993455;28;20494;-67
2022/07/13 04:59:26;;;;;;;10.55;7.78;;;20.40;99.90;;;;;;4979297;28;20562;-67
2022/07/13 05:01:53;;;;;;;11.38;7.68;;;20.40;99.90;;;;;;4997133;28;20058;-67
2022/07/13 05:04:19;;;;;;;8.68;7.50;;;20.40;99.90;;;;;;4973424;28;20389;-67
2022/07/13 05:06:45;;;;;;;11.77;7.55;;;20.40;99.90;;;;;;4956080;28;20087;-68
2022/07/13 05:09:11;;;;;;;10.77;7.05;;;20.40;99.90;;;;;;4995328;28;20500;-67
2022/07/13 05:11:36;;;;;;;9.30;7.22;;;20.40;99.90;;;;;;5012494;28;20497;-67
2022/07/13 05:14:02;;;;;;;8.07;7.28;;;20.40;99.90;;;;;;4989941;28;20056;-68
2022/07/13 05:16:28;;;;;;;7.47;6.57;;;20.40;99.90;;;;;;4995110;28;20484;-67
2022/07/13 05:18:56;;;;;;;11.07;7.47;;;20.40;99.90;;;;;;4993986;28;20050;-67
2022/07/13 05:21:22;;;;;;;10.45;7.45;;;20.40;99.90;;;;;;4954048;28;20049;-67
2022/07/13 05:23:48;;;;;;;8.20;6.75;;;20.40;99.90;;;;;;4970675;28;20262;-67
2022/07/13 05:26:13;;;;;;;8.55;7.45;;;20.40;99.90;;;;;;4977165;28;20089;-68
2022/07/13 05:28:39;;;;;;;8.82;7.55;;;20.40;99.90;;;;;;5000750;28;20462;-68
2022/07/13 05:31:05;;;;;;;9.02;7.03;;;20.40;99.90;;;;;;4986454;28;20046;-67
2022/07/13 05:33:31;;;;;;;9.48;7.47;;;20.40;99.90;;;;;;4998419;28;20132;-67
2022/07/13 05:35:58;;;;;;;9.98;7.57;;;20.40;99.90;;;;;;4992418;28;20916;-67
2022/07/13 05:38:24;;;;;;;13.02;8.15;;;20.40;99.90;;;;;;4975254;28;20341;-67
2022/07/13 05:40:49;;;;;;;11.00;7.38;;;20.50;99.90;;;;;;4990510;28;20524;-66
2022/07/13 05:43:15;;;;;;;8.95;7.45;;;20.40;99.90;;;;;;4993974;28;20050;-68
2022/07/13 05:45:41;;;;;;;8.30;7.50;;;20.50;99.90;;;;;;4989335;28;20073;-67
2022/07/13 05:48:08;;;;;;;9.80;7.80;;;20.50;99.90;;;;;;4967249;28;20050;-67
2022/07/13 05:50:34;;;;;;;12.25;8.02;;;20.50;99.90;;;;;;5011255;28;20095;-68
2022/07/13 05:52:59;;;;;;;8.68;7.75;;;20.50;99.90;;;;;;4996838;28;20041;-67
2022/07/13 05:55:26;;;;;;;11.48;8.88;;;20.50;99.90;;;;;;4965046;28;20042;-67
2022/07/13 05:57:52;;;;;;;9.70;8.27;;;20.50;99.90;;;;;;4976209;28;20606;-67
2022/07/13 06:00:17;;;;;;;10.77;8.38;;;20.60;99.90;;;;;;4991264;28;20054;-67
2022/07/13 06:02:43;;;;;;;9.63;8.15;;;20.60;99.90;;;;;;4975187;28;20060;-67
2022/07/13 06:05:10;;;;;;;10.15;9.10;;;20.60;99.90;;;;;;4978681;28;20073;-68
2022/07/13 06:07:36;;;;;;;13.13;9.15;;;20.60;99.90;;;;;;4997325;28;20049;-68
2022/07/13 06:10:04;;;;;;;13.68;9.38;;;20.60;99.90;;;;;;5001700;28;20141;-71
2022/07/13 06:12:30;;;;;;;13.88;9.55;;;20.60;99.90;;;;;;4993700;28;20049;-67
2022/07/13 06:14:56;;;;;;;10.60;9.50;;;20.70;99.90;;;;;;4987342;28;20400;-67
2022/07/13 06:17:22;;;;;;;11.55;9.63;;;20.70;99.90;;;;;;4958954;28;20057;-67
2022/07/13 06:19:49;;;;;;;11.45;9.95;;;20.80;99.90;;;;;;5017578;28;20057;-68
2022/07/13 06:22:15;;;;;;;11.35;10.10;;;20.80;99.90;;;;;;4995931;28;20061;-68
2022/07/13 06:24:42;;;;;;;13.32;9.95;;;20.90;99.90;;;;;;4996736;28;20042;-67
2022/07/13 06:27:08;;;;;;;10.98;9.82;;;20.90;99.90;;;;;;4985822;28;20060;-68
2022/07/13 06:29:34;;;;;;;10.60;9.43;;;21.00;99.90;;;;;;5002648;28;20169;-67
2022/07/13 06:32:00;;;;;;;11.98;10.15;;;21.00;99.90;;;;;;4991034;28;20049;-68
2022/07/13 06:34:26;;;;;;;13.88;10.52;;;21.10;99.90;;;;;;4984042;28;20042;-68
2022/07/13 06:36:52;;;;;;;15.90;9.98;;;21.10;99.90;;;;;;5011762;28;20713;-67
2022/07/13 06:39:18;;;;;;;11.82;9.77;;;21.20;99.90;;;;;;4998381;28;20049;-67
2022/07/13 06:41:45;;;;;;;11.02;9.70;;;21.20;99.90;;;;;;4998455;28;20542;-67
2022/07/13 06:44:11;;;;;;;13.43;10.25;;;21.20;99.90;;;;;;5000600;28;20056;-67
2022/07/13 06:46:38;;;;;;;12.95;9.98;;;21.20;99.90;;;;;;5000975;28;20053;-67
2022/07/13 06:49:04;;;;;;;14.90;9.80;;;21.20;99.90;;;;;;5020893;28;20049;-67
2022/07/13 06:51:30;;;;;;;12.23;9.18;;;21.30;99.90;;;;;;5001106;28;20052;-67
2022/07/13 06:53:56;;;;;;;18.88;9.77;;;21.40;99.90;;;;;;5004037;28;20041;-67
2022/07/13 06:56:22;;;;;;;11.15;9.20;;;21.50;99.90;;;;;;5004753;28;20395;-66
2022/07/13 06:58:48;;;;;;;13.18;9.15;;;21.60;99.90;;;;;;5001682;28;20056;-67
2022/07/13 07:01:14;;;;;;;12.77;8.75;;;21.70;99.90;;;;;;5020770;28;20069;-67
2022/07/13 07:03:40;;;;;;;13.90;9.45;;;21.80;99.90;;;;;;5004910;28;20049;-66
2022/07/13 07:06:06;;;;;;;11.82;8.57;;;21.90;99.90;;;;;;4998145;28;20574;-67
2022/07/13 07:08:32;;;;;;;11.73;7.95;;;22.00;99.90;;;;;;4998972;28;20107;-67
2022/07/13 07:10:57;;;;;;;12.75;8.98;;;22.10;99.90;;;;;;4999817;28;20050;-67
2022/07/13 07:13:23;;;;;;;10.45;8.48;;;22.10;99.90;;;;;;4999201;28;20046;-67
2022/07/13 07:15:49;;;;;;;14.80;8.52;;;22.20;99.90;;;;;;5002606;28;20045;-67
2022/07/13 07:18:15;;;;;;;14.75;8.80;;;22.30;99.90;;;;;;4970631;28;20046;-67
2022/07/13 07:20:41;;;;;;;15.57;9.25;;;22.40;99.90;;;;;;5019120;28;20115;-67
2022/07/13 07:23:07;;;;;;;12.07;8.90;;;22.50;99.90;;;;;;5004865;28;20509;-68
2022/07/13 07:25:32;;;;;;;14.40;9.25;;;22.60;99.90;;;;;;4987459;28;20084;-66
2022/07/13 07:27:58;;;;;;;16.90;9.88;;;22.60;99.90;;;;;;5001862;28;20065;-68
2022/07/13 07:30:24;;;;;;;18.08;9.13;;;22.70;99.90;;;;;;5018986;28;20045;-65
2022/07/13 07:32:50;;;;;;;16.45;11.02;;;22.80;99.90;;;;;;5003005;28;20050;-66
2022/07/13 07:35:16;;;;;;;17.55;10.48;;;22.90;99.90;;;;;;4997211;28;20056;-65
2022/07/13 07:37:44;;;;;;;19.02;10.50;;;22.90;99.90;;;;;;5017835;28;20503;-65
2022/07/13 07:40:11;;;;;;;17.27;9.95;;;23.00;99.90;;;;;;5002755;28;20085;-66
2022/07/13 07:42:37;;;;;;;19.50;10.50;;;23.10;99.90;;;;;;5004281;28;20049;-66
2022/07/13 07:45:04;;;;;;;16.95;11.35;;;23.20;99.90;;;;;;5003972;28;20034;-65
2022/07/13 07:47:29;;;;;;;18.85;11.50;;;23.30;99.90;;;;;;4999968;28;20077;-65
2022/07/13 07:49:55;;;;;;;13.70;9.95;;;23.40;99.90;;;;;;5004041;28;20575;-66
2022/07/13 07:52:21;;;;;;;16.23;11.32;;;23.40;99.90;;;;;;4999548;28;20053;-65
2022/07/13 07:54:48;;;;;;;16.08;11.25;;;23.50;99.90;;;;;;4995379;28;20084;-65
2022/07/13 07:57:14;;;;;;;19.60;11.18;;;23.60;99.90;;;;;;4995926;28;20053;-66
2022/07/13 07:59:41;;;;;;;14.45;10.93;;;23.60;99.90;;;;;;4983565;28;20046;-65
2022/07/13 08:02:08;;;;;;;15.10;10.73;;;23.70;99.90;;;;;;4996671;28;20104;-65
2022/07/13 08:04:34;;;;;;;13.75;10.60;;;23.80;99.90;;;;;;4994516;28;20136;-65
2022/07/13 08:07:01;;;;;;;16.90;11.27;;;23.90;99.90;;;;;;5001364;28;20140;-65
2022/07/13 08:09:27;;;;;;;17.30;10.10;;;24.10;99.90;;;;;;5002209;28;20057;-66
2022/07/13 08:11:53;;;;;;;17.20;10.93;;;24.10;99.90;;;;;;4985852;28;20046;-65
2022/07/13 08:14:19;;;;;;;17.05;9.55;;;24.20;99.90;;;;;;4984790;28;20068;-66
2022/07/13 08:16:45;;;;;;;13.40;9.27;;;24.30;99.90;;;;;;5001777;28;20121;-66
2022/07/13 08:19:11;;;;;;;13.35;9.65;;;24.30;99.90;;;;;;4999700;28;20183;-66
2022/07/13 08:21:37;;;;;;;15.20;10.13;;;24.40;99.90;;;;;;5011114;28;20072;-65
2022/07/13 08:24:03;;;;;;;12.77;8.82;;;24.50;99.90;;;;;;4994679;28;20270;-65
2022/07/13 08:26:29;;;;;;;13.65;8.05;;;24.60;99.90;;;;;;5011541;28;20050;-65
2022/07/13 08:28:58;;;;;;;13.13;9.20;;;24.70;99.90;;;;;;5009870;28;20046;-65
2022/07/13 08:31:24;;;;;;;15.48;8.32;;;24.80;99.90;;;;;;4993874;28;20053;-65
2022/07/13 08:39:20;;;;;;;11.57;8.38;;;25.00;99.60;;;;;;5006024;28;20045;-66
2022/07/13 08:41:47;;;;;;;13.90;6.65;;;25.20;99.30;;;;;;5009564;28;20053;-65
2022/07/13 08:44:13;;;;;;;12.65;7.18;;;25.20;99.10;;;;;;4993554;28;22163;-65
2022/07/13 08:46:40;;;;;;;8.23;6.90;;;25.40;98.50;;;;;;4991462;28;20052;-66
2022/07/13 08:49:07;;;;;;;13.18;6.45;;;25.40;98.50;;;;;;4994738;28;20046;-65
2022/07/13 08:51:33;;;;;;;11.98;6.18;;;25.50;98.40;;;;;;4995623;28;20052;-66
2022/07/13 08:53:59;;;;;;;7.75;5.38;;;25.60;98.00;;;;;;4991849;28;20050;-65
2022/07/13 08:56:25;;;;;;;6.90;3.63;;;25.70;97.40;;;;;;4991328;28;20136;-66
2022/07/13 08:58:54;;;;;;;6.28;4.10;;;25.80;96.60;;;;;;4995789;28;20049;-66
2022/07/13 09:01:21;;;;;;;8.48;4.05;;;25.90;95.50;;;;;;4991753;28;20053;-65
2022/07/13 09:03:47;;;;;;;7.35;5.05;;;25.90;95.20;;;;;;4991359;28;20905;-66
2022/07/13 09:06:38;;;;;;;5.57;4.72;;;26.00;95.00;;;;;;4996296;28;20050;-66
2022/07/13 09:09:04;;;;;;;8.05;4.85;;;26.20;94.90;;;;;;4991031;28;20294;-65
2022/07/13 09:11:30;;;;;;;7.15;4.97;;;26.20;94.20;;;;;;4993019;28;20093;-65
2022/07/13 09:13:56;;;;;;;8.77;4.68;;;26.30;93.90;;;;;;5008184;28;20053;-66
2022/07/13 09:16:29;;;;;;;6.53;4.05;;;26.40;93.60;;;;;;4958161;28;20046;-65
2022/07/13 09:19:00;;;;;;;7.70;4.63;;;26.50;93.30;;;;;;4994171;28;20089;-65
2022/07/13 09:21:27;;;;;;;7.90;5.07;;;26.60;92.50;;;;;;5010082;28;20455;-66
2022/07/13 09:23:58;;;;;;;8.30;5.38;;;26.70;91.90;;;;;;4991907;28;20061;-65
2022/07/13 09:26:40;;;;;;;8.90;4.85;;;26.70;91.50;;;;;;4996054;28;20496;-66
2022/07/13 09:29:06;;;;;;;6.43;4.03;;;26.80;92.00;;;;;;4993742;28;20084;-66
2022/07/13 09:31:55;;;;;;;7.30;4.03;;;26.90;91.80;;;;;;5007317;28;20395;-66
2022/07/13 09:34:46;;;;;;;6.07;3.72;;;27.00;90.70;;;;;;4994327;28;20056;-66
2022/07/13 09:37:17;;;;;;;6.60;3.88;;;27.00;90.20;;;;;;4975495;28;20048;-66
2022/07/13 09:40:09;;;;;;;7.18;3.80;;;27.10;89.00;;;;;;4993978;28;20523;-66
2022/07/13 09:42:40;;;;;;;7.35;3.42;;;27.20;89.40;;;;;;4993932;28;20172;-66
2022/07/13 09:48:00;;;;;;;6.57;3.30;;;27.30;88.60;;;;;;4992480;28;20056;-64
2022/07/13 09:50:41;;;;;;;4.03;3.47;;;27.40;87.70;;;;;;4995568;28;20488;-66
2022/07/13 09:53:43;;;;;;;5.55;3.40;;;27.50;86.70;;;;;;4992896;28;20125;-65
2022/07/13 09:56:10;;;;;;;10.38;3.83;;;27.60;85.70;;;;;;4911369;28;20512;-66
2022/07/13 09:58:37;;;;;;;6.88;3.63;;;27.60;86.10;;;;;;4946968;28;20101;-65
2022/07/13 10:01:03;;;;;;;8.07;4.10;;;27.60;85.70;;;;;;4992163;28;20042;-66
2022/07/13 10:03:30;;;;;;;8.82;4.25;;;27.60;84.80;;;;;;4991266;28;20053;-65
2022/07/13 10:05:58;;;;;;;6.25;4.13;;;27.70;84.70;;;;;;4990835;28;20057;-65
2022/07/13 10:08:24;;;;;;;7.97;3.22;;;27.80;83.90;;;;;;4993982;28;20049;-66
2022/07/13 10:10:52;;;;;;;4.50;3.03;;;27.80;83.90;;;;;;4992838;28;20158;-65
2022/07/13 10:13:19;;;;;;;5.78;2.80;;;27.90;81.60;;;;;;4994409;28;20065;-65
2022/07/13 10:15:45;;;;;;;7.65;2.80;;;27.90;79.10;;;;;;4995099;28;20558;-66
2022/07/13 10:18:24;;;;;;;5.63;2.38;;;27.90;79.00;;;;;;4993667;28;20491;-64
2022/07/13 10:20:57;;;;;;;4.30;1.90;;;28.00;79.30;;;;;;4994404;28;20606;-65
2022/07/13 10:23:50;;;;;;;4.32;2.10;;;28.10;77.10;;;;;;4996533;28;20054;-67
2022/07/13 10:26:20;;;;;;;2.95;2.20;;;28.10;76.20;;;;;;4997245;28;20129;-66
2022/07/13 10:29:04;;;;;;;5.07;2.20;;;28.20;74.40;;;;;;4999722;28;20096;-66
2022/07/13 10:31:36;;;;;;;2.80;2.08;;;28.20;74.20;;;;;;4996107;28;20042;-66
2022/07/13 10:34:03;;;;;;;6.50;2.28;;;28.30;72.70;;;;;;4995191;28;20503;-66
2022/07/13 10:36:48;;;;;;;3.67;2.05;;;28.40;71.50;;;;;;4996511;28;20131;-66
2022/07/13 10:39:14;;;;;;;5.63;2.47;;;28.50;71.30;;;;;;4996889;28;20101;-66
2022/07/13 10:42:18;;;;;;;9.45;2.50;;;28.50;70.60;;;;;;5005195;28;20436;-65
2022/07/13 10:44:45;;;;;;;3.78;2.08;;;28.60;70.90;;;;;;4937520;28;20054;-66
2022/07/13 10:47:13;;;;;;;4.95;2.10;;;28.70;70.50;;;;;;4954243;28;20046;-66
2022/07/13 10:49:47;;;;;;;4.35;2.35;;;28.70;69.00;;;;;;4971969;28;20066;-65
2022/07/13 10:52:22;;;;;;;4.10;2.25;;;28.80;69.00;;;;;;4998021;28;20810;-66
2022/07/13 10:55:11;;;;;;;2.33;2.10;;;28.90;68.50;;;;;;4995634;28;20060;-66
2022/07/13 10:57:39;;;;;;;3.67;2.20;;;28.90;69.70;;;;;;5003531;28;20425;-66
2022/07/13 11:00:22;;;;;;;4.32;2.25;;;29.00;68.60;;;;;;5003074;28;20050;-65
2022/07/13 11:02:54;;;;;;;3.20;2.10;;;29.00;67.30;;;;;;4999648;28;20057;-66
2022/07/13 11:05:24;;;;;;;4.40;2.20;;;29.10;67.00;;;;;;5001201;28;20061;-66
2022/07/13 11:07:52;;;;;;;3.17;2.15;;;29.10;67.70;;;;;;5016340;28;20065;-62
2022/07/13 11:10:30;;;;;;;3.05;1.58;;;29.10;67.30;;;;;;5005803;28;20050;-63
2022/07/13 11:13:01;;;;;;;4.00;2.10;;;29.10;66.70;;;;;;5004129;28;20041;-61
2022/07/13 11:15:43;;;;;;;2.25;1.73;;;29.10;67.00;;;;;;5003232;28;20479;-62
2022/07/13 11:18:21;;;;;;;2.80;1.73;;;29.10;66.80;;;;;;5002820;28;20050;-63
2022/07/13 11:21:03;;;;;;;3.67;1.95;;;29.10;67.40;;;;;;5006031;28;20052;-62
2022/07/13 11:26:23;;;;;;;3.95;2.30;;;29.10;68.30;;;;;;5005436;28;20041;-61
2022/07/13 11:29:02;;;;;;;5.65;2.83;;;29.10;67.80;;;;;;5003966;28;20052;-62
2022/07/13 11:31:28;;;;;;;5.32;2.10;;;28.90;67.50;;;;;;5002226;28;20049;-63
2022/07/13 11:33:56;;;;;;;4.80;2.38;;;28.80;67.60;;;;;;5002347;28;20038;-63
2022/07/13 11:36:24;;;;;;;6.63;2.58;;;28.70;68.10;;;;;;5003877;28;20110;-61
2022/07/13 11:38:50;;;;;;;4.28;2.20;;;28.60;69.70;;;;;;5003805;28;20057;-62
2022/07/13 11:41:19;;;;;;;4.47;2.20;;;28.60;70.20;;;;;;5003762;28;20038;-62
2022/07/13 11:43:48;;;;;;;6.00;2.22;;;28.40;69.60;;;;;;5002690;28;20072;-61
2022/07/13 11:46:20;;;;;;;6.78;2.38;;;28.30;70.20;;;;;;4999951;28;20053;-63
2022/07/13 11:48:46;;;;;;;;;;;28.10;71.80;;;;;;5004710;28;20515;-62
2022/07/13 11:51:14;;;;;;;6.00;2.95;;;28.20;72.10;;;;;;5006748;28;19917;-63
2022/07/13 11:53:40;;;;;;;6.28;3.00;;;28.20;73.10;;;;;;5003585;28;20052;-62
2022/07/13 11:56:08;;;;;;;4.25;2.72;;;28.20;74.30;;;;;;5002891;28;20034;-63
2022/07/13 11:58:39;;;;;;;4.88;2.53;;;28.30;74.60;;;;;;5002583;28;20092;-63
2022/07/13 12:01:16;;;;;;;5.28;2.47;;;28.30;73.60;;;;;;5014505;28;20092;-63
2022/07/13 12:03:50;;;;;;;9.35;2.70;;;28.40;73.90;;;;;;4997698;28;20443;-63
2022/07/13 12:06:19;;;;;;;4.63;2.40;;;28.60;73.70;;;;;;4995265;28;20476;-63
2022/07/13 12:08:46;;;;;;;5.47;2.38;;;28.60;73.30;;;;;;4990809;28;20085;-63
2022/07/13 12:11:16;;;;;;;4.88;2.17;;;28.70;73.60;;;;;;4970440;28;20045;-63
2022/07/13 12:13:43;;;;;;;6.50;3.25;;;28.80;73.20;;;;;;4992439;28;20076;-63
2022/07/13 12:16:11;;;;;;;6.80;2.45;;;28.70;72.60;;;;;;4995597;28;20045;-63
2022/07/13 12:18:56;;;;;;;6.10;2.85;;;28.50;72.40;;;;;;4996180;28;20081;-59
2022/07/13 12:21:22;;;;;;;7.93;3.47;;;28.40;73.50;;;;;;4992432;28;20124;-61
2022/07/13 12:23:48;;;;;;;9.20;3.22;;;28.30;74.20;;;;;;4996024;28;20653;-62
2022/07/13 12:26:14;;;;;;;11.90;3.67;;;28.10;73.90;;;;;;4994112;28;20512;-62
2022/07/13 12:28:43;;;;;;;8.45;3.10;;;27.80;74.60;;;;;;4991531;28;20073;-62
2022/07/13 12:31:09;;;;;;;11.25;3.33;;;27.70;76.30;;;;;;4989305;28;20419;-61
2022/07/13 12:33:42;;;;;;;6.35;3.13;;;27.80;77.50;;;;;;4992390;28;20045;-62
2022/07/13 12:36:09;;;;;;;10.10;3.25;;;27.80;76.90;;;;;;4999232;28;20485;-63
2022/07/13 12:38:36;;;;;;;7.72;3.30;;;28.00;77.10;;;;;;4991903;28;20421;-63
2022/07/13 12:41:03;;;;;;;8.82;3.25;;;28.10;76.80;;;;;;5000068;28;20052;-61
2022/07/13 12:43:30;;;;;;;8.88;2.80;;;28.20;76.00;;;;;;4996855;28;20049;-63
2022/07/13 12:46:03;;;;;;;7.15;2.70;;;28.20;75.80;;;;;;4998749;28;20448;-63
2022/07/13 12:48:35;;;;;;;8.63;2.92;;;28.20;75.90;;;;;;5001534;28;20496;-61
2022/07/13 12:51:06;;;;;;;5.65;2.60;;;28.20;76.40;;;;;;5003029;28;20594;-63
2022/07/13 12:53:49;;;;;;;6.87;3.10;;;28.20;75.80;;;;;;4995936;28;20131;-63
2022/07/13 12:56:17;;;;;;;13.43;3.40;;;28.20;75.50;;;;;;5001400;28;20038;-63
2022/07/13 12:58:44;;;;;;;7.95;2.88;;;28.20;75.70;;;;;;4993619;28;20629;-61